createdAt,value
2023-01-09T00:01:34.673Z,9.10
2023-01-09T00:04:03.870Z,9.10
2023-01-09T00:06:32.109Z,9.00
2023-01-09T00:09:00.465Z,8.90
2023-01-09T00:11:28.875Z,8.90
2023-01-09T00:13:57.072Z,8.80
2023-01-09T00:16:25.361Z,8.80
2023-01-09T00:18:55.238Z,8.80
2023-01-09T00:21:23.441Z,8.70
2023-01-09T00:23:54.810Z,8.70
2023-01-09T00:26:23.316Z,8.70
2023-01-09T00:28:54.183Z,8.70
2023-01-09T00:31:22.749Z,8.70
2023-01-09T00:34:03.621Z,8.60
2023-01-09T00:36:31.869Z,8.60
2023-01-09T00:39:00.144Z,8.60
2023-01-09T00:41:35.361Z,8.60
2023-01-09T00:44:07.651Z,8.60
2023-01-09T00:46:40.058Z,8.50
2023-01-09T00:49:10.622Z,8.50
2023-01-09T00:51:40.483Z,8.40
2023-01-09T00:54:10.145Z,8.50
2023-01-09T00:56:38.607Z,8.40
2023-01-09T00:59:08.492Z,8.40
2023-01-09T01:01:36.929Z,8.40
2023-01-09T01:04:25.484Z,8.40
2023-01-09T01:07:12.250Z,8.40
2023-01-09T01:09:40.670Z,8.40
2023-01-09T01:12:08.873Z,8.30
2023-01-09T01:14:38.931Z,8.40
2023-01-09T01:17:08.238Z,8.30
2023-01-09T01:19:37.388Z,8.30
2023-01-09T01:22:06.980Z,8.30
2023-01-09T01:24:35.231Z,8.20
2023-01-09T01:27:03.665Z,8.20
2023-01-09T01:29:31.942Z,8.20
2023-01-09T01:32:00.291Z,8.10
2023-01-09T01:34:29.991Z,8.10
2023-01-09T01:36:58.197Z,8.10
2023-01-09T01:39:27.829Z,8.10
2023-01-09T01:41:56.179Z,8.10
2023-01-09T01:45:13.060Z,8.10
2023-01-09T01:47:50.202Z,8.10
2023-01-09T01:50:24.458Z,8.10
2023-01-09T01:52:57.944Z,8.10
2023-01-09T01:55:27.612Z,8.00
2023-01-09T01:58:01.628Z,8.10
2023-01-09T02:00:33.761Z,8.00
2023-01-09T02:03:03.303Z,8.00
2023-01-09T02:05:32.279Z,8.00
2023-01-09T02:08:00.531Z,8.00
2023-01-09T02:10:30.113Z,8.00
2023-01-09T02:12:58.621Z,8.00
2023-01-09T02:15:30.865Z,8.00
2023-01-09T02:18:23.506Z,8.00
2023-01-09T02:20:58.434Z,8.00
2023-01-09T02:23:56.323Z,8.00
2023-01-09T02:26:59.855Z,8.00
2023-01-09T02:29:46.179Z,8.00
2023-01-09T02:32:26.604Z,8.10
2023-01-09T02:35:04.026Z,8.00
2023-01-09T02:37:39.230Z,8.00
2023-01-09T02:40:16.930Z,8.00
2023-01-09T02:42:46.777Z,7.90
2023-01-09T02:45:15.050Z,7.90
2023-01-09T02:47:46.801Z,8.00
2023-01-09T02:50:20.543Z,7.90
2023-01-09T02:53:12.584Z,7.90
2023-01-09T02:55:55.464Z,7.80
2023-01-09T02:58:40.919Z,7.90
2023-01-09T03:01:23.254Z,7.90
2023-01-09T03:04:02.337Z,7.80
2023-01-09T03:06:35.862Z,7.80
2023-01-09T03:09:09.811Z,7.80
2023-01-09T03:11:45.133Z,7.80
2023-01-09T03:14:16.745Z,7.80
2023-01-09T03:16:47.542Z,7.80
2023-01-09T03:19:19.216Z,7.70
2023-01-09T03:21:48.440Z,7.80
2023-01-09T03:24:16.694Z,7.70
2023-01-09T03:26:45.086Z,7.60
2023-01-09T03:29:13.282Z,7.60
2023-01-09T03:31:41.505Z,7.60
2023-01-09T03:34:09.777Z,7.60
2023-01-09T03:36:39.418Z,7.60
2023-01-09T03:39:07.980Z,7.50
2023-01-09T03:41:36.233Z,7.60
2023-01-09T03:44:04.471Z,7.60
2023-01-09T03:46:32.733Z,7.60
2023-01-09T03:49:00.970Z,7.60
2023-01-09T03:51:29.838Z,7.70
2023-01-09T03:53:59.488Z,7.60
2023-01-09T03:56:27.673Z,7.70
2023-01-09T03:58:56.063Z,7.70
2023-01-09T04:01:24.437Z,7.70
2023-01-09T04:03:52.741Z,7.70
2023-01-09T04:06:20.988Z,7.70
2023-01-09T04:08:49.182Z,7.70
2023-01-09T04:11:18.763Z,7.70
2023-01-09T04:13:46.977Z,7.80
2023-01-09T04:16:15.312Z,7.80
2023-01-09T04:18:43.644Z,7.80
2023-01-09T04:21:11.889Z,7.80
2023-01-09T04:23:40.104Z,7.80
2023-01-09T04:26:08.337Z,7.80
2023-01-09T04:28:38.040Z,7.80
2023-01-09T04:31:06.509Z,7.80
2023-01-09T04:33:34.753Z,7.80
2023-01-09T04:36:03.043Z,7.80
2023-01-09T04:38:31.308Z,7.80
2023-01-09T04:40:59.557Z,7.80
2023-01-09T04:43:27.770Z,7.80
2023-01-09T04:45:57.732Z,7.80
2023-01-09T04:48:25.966Z,7.80
2023-01-09T04:50:54.209Z,7.80
2023-01-09T04:53:22.375Z,7.80
2023-01-09T04:55:50.575Z,7.80
2023-01-09T04:58:18.767Z,7.90
2023-01-09T05:00:46.967Z,7.80
2023-01-09T05:03:16.594Z,7.80
2023-01-09T05:05:45.450Z,7.80
2023-01-09T05:08:13.650Z,7.90
2023-01-09T05:10:41.850Z,7.80
2023-01-09T05:13:10.050Z,7.70
2023-01-09T05:15:38.301Z,7.60
2023-01-09T05:18:06.679Z,7.50
2023-01-09T05:20:36.299Z,7.40
2023-01-09T05:23:04.720Z,7.30
2023-01-09T05:25:32.942Z,7.40
2023-01-09T05:28:01.479Z,7.20
2023-01-09T05:30:29.838Z,7.20
2023-01-09T05:32:58.083Z,7.20
2023-01-09T05:35:26.373Z,7.10
2023-01-09T05:37:56.713Z,7.10
2023-01-09T05:40:32.067Z,7.10
2023-01-09T05:43:00.572Z,7.00
2023-01-09T05:45:29.022Z,7.10
2023-01-09T05:47:57.516Z,7.10
2023-01-09T05:50:25.707Z,7.10
2023-01-09T05:52:55.295Z,7.20
2023-01-09T05:55:23.556Z,7.20
2023-01-09T05:57:51.739Z,7.20
2023-01-09T06:00:20.946Z,7.20
2023-01-09T06:02:49.195Z,7.30
2023-01-09T06:05:17.793Z,7.30
2023-01-09T06:07:46.034Z,7.30
2023-01-09T06:10:16.629Z,7.40
2023-01-09T06:12:48.819Z,7.40
2023-01-09T06:15:17.373Z,7.40
2023-01-09T06:17:45.923Z,7.50
2023-01-09T06:20:14.434Z,7.50
2023-01-09T06:22:44.771Z,7.50
2023-01-09T06:25:13.608Z,7.50
2023-01-09T06:27:43.407Z,7.60
2023-01-09T06:30:12.821Z,7.60
2023-01-09T06:32:41.125Z,7.50
2023-01-09T06:35:10.173Z,7.60
2023-01-09T06:37:38.468Z,7.60
2023-01-09T06:40:07.852Z,7.60
2023-01-09T06:42:36.166Z,7.60
2023-01-09T06:45:06.638Z,7.60
2023-01-09T06:47:34.835Z,7.70
2023-01-09T06:50:04.172Z,7.60
2023-01-09T06:52:32.445Z,7.60
2023-01-09T06:55:00.720Z,7.60
2023-01-09T06:57:29.956Z,7.60
2023-01-09T06:59:58.460Z,7.60
2023-01-09T07:02:28.261Z,7.70
2023-01-09T07:04:56.574Z,7.60
2023-01-09T07:07:24.920Z,7.60
2023-01-09T07:09:53.206Z,7.60
2023-01-09T07:12:21.488Z,7.60
2023-01-09T07:14:49.663Z,7.60
2023-01-09T07:17:18.451Z,7.50
2023-01-09T07:19:48.194Z,7.40
2023-01-09T07:22:16.500Z,7.50
2023-01-09T07:24:45.024Z,7.50
2023-01-09T07:27:13.381Z,7.40
2023-01-09T07:29:41.597Z,7.50
2023-01-09T07:32:09.842Z,7.40
2023-01-09T07:34:38.064Z,7.40
2023-01-09T07:37:07.681Z,7.40
2023-01-09T07:39:35.977Z,7.40
2023-01-09T07:42:04.177Z,7.40
2023-01-09T07:44:32.387Z,7.30
2023-01-09T07:47:00.547Z,7.40
2023-01-09T07:49:28.799Z,7.40
2023-01-09T07:51:57.349Z,7.40
2023-01-09T07:54:26.941Z,7.40
2023-01-09T07:56:56.117Z,7.40
2023-01-09T07:59:24.862Z,7.40
2023-01-09T08:01:53.081Z,7.50
2023-01-09T08:04:21.279Z,7.50
2023-01-09T08:06:49.577Z,7.60
2023-01-09T08:09:18.339Z,7.60
2023-01-09T08:11:47.944Z,7.50
2023-01-09T08:14:16.475Z,7.60
2023-01-09T08:16:45.132Z,7.60
2023-01-09T08:19:13.333Z,7.60
2023-01-09T08:21:41.556Z,7.60
2023-01-09T08:24:11.169Z,7.70
2023-01-09T08:26:39.726Z,7.70
2023-01-09T08:29:09.379Z,7.80
2023-01-09T08:31:37.641Z,7.70
2023-01-09T08:34:05.872Z,7.80
2023-01-09T08:36:34.115Z,7.90
2023-01-09T08:39:02.359Z,7.90
2023-01-09T08:41:48.233Z,7.90
2023-01-09T08:44:34.652Z,8.00
2023-01-09T08:47:08.617Z,8.00
2023-01-09T08:49:38.753Z,8.00
2023-01-09T08:52:07.882Z,8.00
2023-01-09T08:54:38.825Z,8.10
2023-01-09T08:57:07.502Z,8.10
2023-01-09T08:59:37.081Z,8.00
2023-01-09T09:02:05.316Z,7.90
2023-01-09T09:04:33.621Z,8.00
2023-01-09T09:07:02.313Z,8.00
2023-01-09T09:09:30.667Z,8.00
2023-01-09T09:11:58.895Z,8.00
2023-01-09T09:14:59.158Z,8.00
2023-01-09T09:17:29.025Z,8.00
2023-01-09T09:19:57.218Z,8.00
2023-01-09T09:22:25.502Z,8.00
2023-01-09T09:24:53.805Z,8.00
2023-01-09T09:27:22.254Z,8.00
2023-01-09T09:29:50.432Z,8.10
2023-01-09T09:32:18.666Z,8.00
2023-01-09T09:34:48.278Z,8.10
2023-01-09T09:37:16.566Z,8.00
2023-01-09T09:39:44.793Z,8.00
2023-01-09T09:42:57.166Z,8.00
2023-01-09T09:45:41.924Z,8.00
2023-01-09T09:48:23.825Z,7.90
2023-01-09T09:51:26.659Z,8.00
2023-01-09T09:54:00.631Z,8.10
2023-01-09T09:56:33.457Z,8.10
2023-01-09T09:59:05.263Z,8.20
2023-01-09T10:01:41.185Z,8.10
2023-01-09T10:04:14.925Z,8.10
2023-01-09T10:06:46.643Z,8.30
2023-01-09T10:09:24.354Z,8.30
2023-01-09T10:12:00.386Z,8.30
2023-01-09T10:14:28.834Z,8.30
2023-01-09T10:17:14.060Z,8.20
2023-01-09T10:20:11.891Z,8.20
2023-01-09T10:22:51.810Z,8.20
2023-01-09T10:25:27.228Z,8.30
2023-01-09T10:28:14.185Z,8.40
2023-01-09T10:30:45.702Z,8.30
2023-01-09T10:33:36.164Z,8.40
2023-01-09T10:36:30.376Z,8.30
2023-01-09T10:39:04.326Z,8.20
2023-01-09T10:41:37.379Z,8.20
2023-01-09T10:44:09.280Z,8.30
2023-01-09T10:46:42.643Z,8.30
2023-01-09T10:49:15.489Z,8.30
2023-01-09T10:51:48.879Z,8.40
2023-01-09T10:54:22.203Z,8.40
2023-01-09T10:56:56.354Z,8.40
2023-01-09T10:59:24.925Z,8.40
2023-01-09T11:01:54.582Z,8.50
2023-01-09T11:04:27.714Z,8.50
2023-01-09T11:07:01.086Z,8.50
2023-01-09T11:09:59.071Z,8.60
2023-01-09T11:12:29.049Z,8.60
2023-01-09T11:14:57.635Z,8.70
2023-01-09T11:17:28.346Z,8.70
2023-01-09T11:20:04.859Z,8.70
2023-01-09T11:22:44.786Z,8.70
2023-01-09T11:25:17.143Z,8.70
2023-01-09T11:27:45.929Z,8.70
2023-01-09T11:30:27.887Z,8.70
2023-01-09T11:32:57.865Z,8.70
2023-01-09T11:35:33.769Z,8.70
2023-01-09T11:38:06.734Z,8.70
2023-01-09T11:40:46.446Z,8.70
2023-01-09T11:43:19.351Z,8.70
2023-01-09T11:46:00.638Z,8.70
2023-01-09T11:48:36.271Z,8.70
2023-01-09T11:51:08.113Z,8.80
2023-01-09T11:53:56.677Z,8.70
2023-01-09T11:56:26.416Z,8.80
2023-01-09T11:58:54.712Z,8.90
2023-01-09T12:01:50.607Z,8.80
2023-01-09T12:04:28.828Z,8.90
2023-01-09T12:07:26.408Z,8.80
2023-01-09T12:10:04.286Z,8.80
2023-01-09T12:12:43.279Z,8.80
2023-01-09T12:15:25.816Z,8.80
2023-01-09T12:18:23.628Z,8.70
2023-01-09T12:21:18.064Z,8.70
2023-01-09T12:24:01.478Z,8.70
2023-01-09T12:26:34.051Z,8.70
2023-01-09T12:29:25.021Z,8.70
2023-01-09T12:32:14.302Z,8.70
2023-01-09T12:34:59.232Z,8.70
2023-01-09T12:38:02.718Z,8.80
2023-01-09T12:40:44.795Z,8.80
2023-01-09T12:43:21.418Z,8.80
2023-01-09T12:46:04.340Z,8.80
2023-01-09T12:48:46.860Z,8.80
2023-01-09T12:51:32.541Z,8.70
2023-01-09T12:54:04.742Z,8.70
2023-01-09T12:56:37.437Z,8.60
2023-01-09T12:59:19.640Z,8.60
2023-01-09T13:01:51.053Z,8.60
2023-01-09T13:04:25.468Z,8.50
2023-01-09T13:06:58.992Z,8.30
2023-01-09T13:09:33.832Z,8.30
2023-01-09T13:12:09.141Z,8.40
2023-01-09T13:14:49.623Z,8.30
2023-01-09T13:17:23.204Z,8.20
2023-01-09T13:19:53.198Z,8.30
2023-01-09T13:22:24.292Z,8.30
2023-01-09T13:25:20.455Z,8.40
2023-01-09T13:27:56.411Z,8.50
2023-01-09T13:30:46.852Z,8.50
2023-01-09T13:33:21.938Z,8.50
2023-01-09T13:35:52.319Z,8.40
2023-01-09T13:38:23.951Z,8.40
2023-01-09T13:41:21.882Z,8.30
2023-01-09T13:43:56.363Z,8.30
2023-01-09T13:46:32.410Z,8.40
2023-01-09T13:49:03.681Z,8.50
2023-01-09T13:51:56.548Z,8.40
2023-01-09T13:55:04.337Z,8.40
2023-01-09T13:57:34.914Z,8.50
2023-01-09T14:00:44.507Z,8.50
2023-01-09T14:03:22.016Z,8.40
2023-01-09T14:06:16.287Z,8.50
2023-01-09T14:08:46.614Z,8.40
2023-01-09T14:11:24.131Z,8.40
2023-01-09T14:14:08.226Z,8.30
2023-01-09T14:16:38.189Z,8.40
2023-01-09T14:19:21.008Z,8.40
2023-01-09T14:21:54.415Z,8.30
2023-01-09T14:24:27.366Z,8.40
2023-01-09T14:26:58.137Z,8.40
2023-01-09T14:29:41.094Z,8.30
2023-01-09T14:32:46.948Z,8.30
2023-01-09T14:35:26.663Z,8.30
2023-01-09T14:38:05.866Z,8.30
2023-01-09T14:40:35.137Z,8.30
2023-01-09T14:43:24.588Z,8.30
2023-01-09T14:45:54.714Z,8.30
2023-01-09T14:48:24.531Z,8.30
2023-01-09T14:50:56.045Z,8.30
2023-01-09T14:53:28.241Z,8.40
2023-01-09T14:55:57.949Z,8.40
2023-01-09T14:58:28.317Z,8.30
2023-01-09T15:01:01.717Z,8.40
2023-01-09T15:03:35.529Z,8.40
2023-01-09T15:06:04.272Z,8.30
2023-01-09T15:08:34.363Z,8.20
2023-01-09T15:11:05.658Z,8.20
2023-01-09T15:13:37.770Z,8.10
2023-01-09T15:16:07.534Z,8.10
2023-01-09T15:18:42.016Z,8.00
2023-01-09T15:21:20.163Z,8.00
2023-01-09T15:23:49.930Z,8.00
2023-01-09T15:26:27.194Z,7.90
2023-01-09T15:29:02.627Z,7.90
2023-01-09T15:31:31.250Z,7.80
2023-01-09T15:33:59.579Z,7.70
2023-01-09T15:36:31.007Z,7.80
2023-01-09T15:39:01.189Z,7.70
2023-01-09T15:41:48.786Z,7.60
2023-01-09T15:44:20.522Z,7.60
2023-01-09T15:46:51.848Z,7.60
2023-01-09T15:49:20.961Z,7.60
2023-01-09T15:51:50.632Z,7.70
2023-01-09T15:54:30.740Z,7.70
2023-01-09T15:57:35.612Z,7.60
2023-01-09T16:00:46.320Z,7.70
2023-01-09T16:03:20.359Z,7.70
2023-01-09T16:05:53.084Z,7.70
2023-01-09T16:08:25.163Z,7.70
2023-01-09T16:10:57.521Z,7.70
2023-01-09T16:13:28.438Z,7.70
2023-01-09T16:15:58.841Z,7.60
2023-01-09T16:18:33.400Z,7.60
2023-01-09T16:21:23.760Z,7.60
2023-01-09T16:23:57.465Z,7.50
2023-01-09T16:26:29.080Z,7.50
2023-01-09T16:28:58.110Z,7.60
2023-01-09T16:31:29.033Z,7.60
2023-01-09T16:34:06.380Z,7.60
2023-01-09T16:36:36.164Z,7.60
2023-01-09T16:39:05.162Z,7.60
2023-01-09T16:41:52.291Z,7.60
2023-01-09T16:44:20.463Z,7.50
2023-01-09T16:46:48.768Z,7.50
2023-01-09T16:49:19.763Z,7.50
2023-01-09T16:51:48.507Z,7.50
2023-01-09T16:54:17.143Z,7.40
2023-01-09T16:56:49.554Z,7.50
2023-01-09T16:59:21.602Z,7.40
2023-01-09T17:01:50.080Z,7.50
2023-01-09T17:04:20.123Z,7.50
2023-01-09T17:06:49.509Z,7.40
2023-01-09T17:09:19.875Z,7.50
2023-01-09T17:11:49.715Z,7.50
2023-01-09T17:14:18.087Z,7.50
2023-01-09T17:16:46.971Z,7.50
2023-01-09T17:19:23.599Z,7.50
2023-01-09T17:21:51.845Z,7.50
2023-01-09T17:24:37.379Z,7.60
2023-01-09T17:27:24.306Z,7.60
2023-01-09T17:29:52.597Z,7.50
2023-01-09T17:32:21.403Z,7.50
2023-01-09T17:34:49.717Z,7.50
2023-01-09T17:37:19.872Z,7.50
2023-01-09T17:39:48.213Z,7.60
2023-01-09T17:42:17.863Z,7.50
2023-01-09T17:44:46.055Z,7.50
2023-01-09T17:47:16.036Z,7.50
2023-01-09T17:49:44.351Z,7.50
2023-01-09T17:52:12.568Z,7.50
2023-01-09T17:54:41.076Z,7.60
2023-01-09T17:57:15.235Z,7.50
2023-01-09T17:59:45.653Z,7.50
2023-01-09T18:02:20.091Z,7.50
2023-01-09T18:04:48.463Z,7.50
2023-01-09T18:07:17.771Z,7.50
2023-01-09T18:09:46.343Z,7.50
2023-01-09T18:12:14.500Z,7.50
2023-01-09T18:14:44.245Z,7.40
2023-01-09T18:17:14.092Z,7.50
2023-01-09T18:19:42.500Z,7.50
2023-01-09T18:22:10.703Z,7.50
2023-01-09T18:24:39.087Z,7.60
2023-01-09T18:27:07.328Z,7.60
2023-01-09T18:29:35.515Z,7.50
2023-01-09T18:32:05.478Z,7.50
2023-01-09T18:34:33.837Z,7.40
2023-01-09T18:37:02.109Z,7.30
2023-01-09T18:39:30.510Z,7.30
2023-01-09T18:41:58.757Z,7.30
2023-01-09T18:44:26.967Z,7.20
2023-01-09T18:46:55.213Z,7.20
2023-01-09T18:49:24.858Z,7.20
2023-01-09T18:51:53.173Z,7.10
2023-01-09T18:54:21.461Z,7.10
2023-01-09T18:56:49.821Z,7.00
2023-01-09T18:59:18.014Z,7.00
2023-01-09T19:01:47.343Z,7.00
2023-01-09T19:04:15.865Z,7.00
2023-01-09T19:06:45.740Z,7.00
2023-01-09T19:09:14.220Z,7.00
2023-01-09T19:11:44.341Z,7.00
2023-01-09T19:14:13.170Z,7.00
2023-01-09T19:16:42.405Z,7.00
2023-01-09T19:19:10.874Z,7.00
2023-01-09T19:21:39.254Z,7.00
2023-01-09T19:24:09.193Z,7.00
2023-01-09T19:26:37.753Z,7.10
2023-01-09T19:29:05.994Z,7.00
2023-01-09T19:31:34.792Z,7.00
2023-01-09T19:34:03.134Z,7.00
2023-01-09T19:36:31.440Z,7.00
2023-01-09T19:39:00.982Z,7.00
2023-01-09T19:41:31.759Z,7.00
2023-01-09T19:44:00.979Z,7.00
2023-01-09T19:46:30.716Z,7.00
2023-01-09T19:48:59.131Z,7.00
2023-01-09T19:51:27.315Z,7.00
2023-01-09T19:56:30.199Z,6.90
2023-01-09T19:59:02.171Z,7.00
2023-01-09T20:01:32.024Z,6.90
2023-01-09T20:04:03.265Z,6.90
2023-01-09T20:06:32.059Z,6.90
2023-01-09T20:09:02.218Z,6.90
2023-01-09T20:11:35.798Z,7.00
2023-01-09T20:14:06.254Z,7.00
2023-01-09T20:16:34.575Z,7.00
2023-01-09T20:19:07.406Z,7.00
2023-01-09T20:21:36.495Z,7.10
2023-01-09T20:24:06.499Z,7.10
2023-01-09T20:26:35.608Z,7.10
2023-01-09T20:29:08.809Z,7.10
2023-01-09T20:31:37.871Z,7.10
2023-01-09T20:34:06.509Z,7.10
2023-01-09T20:36:34.904Z,7.20
2023-01-09T20:39:05.968Z,7.10
2023-01-09T20:41:34.976Z,7.20
2023-01-09T20:44:07.070Z,7.30
2023-01-09T20:46:37.951Z,7.40
2023-01-09T20:49:08.601Z,7.40
2023-01-09T20:51:38.096Z,7.30
2023-01-09T20:54:06.693Z,7.30
2023-01-09T20:56:36.128Z,7.30
2023-01-09T20:59:07.161Z,7.40
2023-01-09T21:01:35.570Z,7.40
2023-01-09T21:04:04.321Z,7.50
2023-01-09T21:06:33.210Z,7.50
2023-01-09T21:09:01.666Z,7.40
2023-01-09T21:11:30.045Z,7.40
2023-01-09T21:13:58.469Z,7.40
2023-01-09T21:16:28.230Z,7.40
2023-01-09T21:18:56.699Z,7.30
2023-01-09T21:21:27.606Z,7.30
2023-01-09T21:23:57.680Z,7.30
2023-01-09T21:26:29.142Z,7.20
2023-01-09T21:28:59.483Z,7.30
2023-01-09T21:31:33.695Z,7.30
2023-01-09T21:34:03.356Z,7.30
2023-01-09T21:36:31.927Z,7.30
2023-01-09T21:39:00.676Z,7.30
2023-01-09T21:41:46.172Z,7.30
2023-01-09T21:44:32.597Z,7.30
2023-01-09T21:47:03.385Z,7.30
2023-01-09T21:49:35.064Z,7.30
2023-01-09T21:52:04.657Z,7.30
2023-01-09T21:54:33.546Z,7.20
2023-01-09T21:57:02.746Z,7.20
2023-01-09T21:59:31.062Z,7.10
2023-01-09T22:01:59.533Z,7.20
2023-01-09T22:04:30.551Z,7.20
2023-01-09T22:06:58.879Z,7.20
2023-01-09T22:09:27.227Z,7.10
2023-01-09T22:11:55.549Z,7.10
2023-01-09T22:14:23.965Z,7.20
2023-01-09T22:16:52.235Z,7.20
2023-01-09T22:19:20.705Z,7.20
2023-01-09T22:21:50.577Z,7.20
2023-01-09T22:24:21.669Z,7.20
2023-01-09T22:26:50.059Z,7.10
2023-01-09T22:29:18.690Z,7.20
2023-01-09T22:31:47.850Z,7.20
2023-01-09T22:34:18.713Z,7.30
2023-01-09T22:36:47.917Z,7.30
2023-01-09T22:39:19.790Z,7.30
2023-01-09T22:41:54.524Z,7.30
2023-01-09T22:44:22.815Z,7.20
2023-01-09T22:46:50.991Z,7.30
2023-01-09T22:49:19.241Z,7.30
2023-01-09T22:51:47.668Z,7.30
2023-01-09T22:54:17.406Z,7.30
2023-01-09T22:56:45.630Z,7.30
2023-01-09T22:59:13.833Z,7.20
2023-01-09T23:01:42.145Z,7.20
2023-01-09T23:04:13.449Z,7.20
2023-01-09T23:06:41.688Z,7.20
2023-01-09T23:09:09.907Z,7.20
2023-01-09T23:11:57.052Z,7.20
2023-01-09T23:14:25.255Z,7.10
2023-01-09T23:16:53.523Z,7.10
2023-01-09T23:19:21.761Z,7.00
2023-01-09T23:21:50.230Z,7.10
2023-01-09T23:24:19.652Z,7.10
2023-01-09T23:26:49.789Z,7.10
2023-01-09T23:29:18.000Z,7.10
2023-01-09T23:31:46.711Z,7.00
2023-01-09T23:34:16.509Z,7.10
2023-01-09T23:36:45.106Z,7.00
2023-01-09T23:39:13.534Z,7.00
2023-01-09T23:42:00.323Z,7.00
2023-01-09T23:44:30.330Z,7.00
2023-01-09T23:46:58.953Z,7.10
2023-01-09T23:49:27.122Z,7.10
2023-01-09T23:51:56.528Z,7.10
2023-01-09T23:54:24.802Z,7.10
2023-01-09T23:56:56.495Z,7.00
2023-01-09T23:59:25.157Z,7.10
